createdAt,value
2017-03-24T00:00:32.334Z,6.3
2017-03-24T00:01:35.019Z,6.3
2017-03-24T00:02:37.460Z,6.3
2017-03-24T00:03:39.771Z,6.3
2017-03-24T00:04:42.712Z,6.3
2017-03-24T00:05:45.146Z,6.3
2017-03-24T00:06:47.884Z,6.3
2017-03-24T00:08:53.232Z,6.3
2017-03-24T00:09:55.539Z,6.2
2017-03-24T00:10:57.983Z,6.3
2017-03-24T00:12:01.174Z,6.2
2017-03-24T00:13:03.613Z,6.2
2017-03-24T00:14:06.089Z,6.3
2017-03-24T00:15:08.528Z,6.2
2017-03-24T00:16:10.829Z,6.3
2017-03-24T00:17:14.030Z,6.2
2017-03-24T00:18:16.470Z,6.2
2017-03-24T00:19:18.773Z,6.3
2017-03-24T00:20:21.711Z,6.2
2017-03-24T00:21:24.147Z,6.2
2017-03-24T00:22:26.893Z,6.3
2017-03-24T00:23:29.337Z,6.3
2017-03-24T00:24:31.780Z,6.2
2017-03-24T00:25:34.719Z,6.2
2017-03-24T00:26:37.153Z,6.2
2017-03-24T00:27:39.895Z,6.2
2017-03-24T00:28:42.343Z,6.1
2017-03-24T00:29:44.783Z,6.1
2017-03-24T00:30:47.720Z,6.1
2017-03-24T00:31:50.158Z,6.1
2017-03-24T00:32:52.901Z,6.1
2017-03-24T00:33:55.372Z,6.1
2017-03-24T00:34:57.682Z,6.1
2017-03-24T00:36:00.619Z,6.1
2017-03-24T00:37:03.055Z,6.1
2017-03-24T00:38:05.804Z,6.2
2017-03-24T00:39:08.112Z,6.1
2017-03-24T00:40:11.054Z,6
2017-03-24T00:41:13.508Z,6
2017-03-24T00:42:15.949Z,6
2017-03-24T00:43:19.203Z,6.1
2017-03-24T00:44:21.141Z,6.1
2017-03-24T00:45:23.947Z,6
2017-03-24T00:46:26.464Z,6
2017-03-24T00:47:28.913Z,6
2017-03-24T00:48:32.109Z,6
2017-03-24T00:49:34.043Z,6
2017-03-24T00:50:36.983Z,6
2017-03-24T00:51:39.280Z,6
2017-03-24T00:52:42.220Z,5.9
2017-03-24T00:53:44.967Z,5.9
2017-03-24T00:54:47.407Z,6
2017-03-24T00:55:49.847Z,5.9
2017-03-24T00:56:52.283Z,6
2017-03-24T00:57:55.227Z,6
2017-03-24T00:58:57.925Z,6
2017-03-24T01:00:00.366Z,6
2017-03-24T01:01:02.800Z,6
2017-03-24T01:02:05.234Z,6
2017-03-24T01:03:08.050Z,6
2017-03-24T01:04:10.793Z,6
2017-03-24T01:05:13.228Z,6
2017-03-24T01:06:15.663Z,5.9
2017-03-24T01:07:18.473Z,5.9
2017-03-24T01:08:20.914Z,6
2017-03-24T01:09:23.660Z,6
2017-03-24T01:10:26.095Z,6
2017-03-24T01:11:28.399Z,6
2017-03-24T01:12:31.337Z,6
2017-03-24T01:13:33.792Z,6
2017-03-24T01:14:36.535Z,5.9
2017-03-24T01:15:38.975Z,5.9
2017-03-24T01:16:41.412Z,5.8
2017-03-24T01:17:44.355Z,5.9
2017-03-24T01:18:46.719Z,5.9
2017-03-24T01:19:49.821Z,5.9
2017-03-24T01:20:51.670Z,6
2017-03-24T01:21:54.532Z,6
2017-03-24T01:22:56.890Z,5.9
2017-03-24T01:24:00.300Z,6
2017-03-24T01:25:02.260Z,6
2017-03-24T01:26:05.107Z,5.9
2017-03-24T01:27:07.453Z,5.9
2017-03-24T01:28:09.760Z,5.8
2017-03-24T01:29:12.611Z,5.9
2017-03-24T01:30:15.715Z,5.9
2017-03-24T01:31:18.063Z,5.8
2017-03-24T01:32:20.277Z,5.8
2017-03-24T01:33:23.132Z,5.8
2017-03-24T01:34:25.483Z,5.8
2017-03-24T01:35:28.316Z,5.8
2017-03-24T01:36:30.665Z,5.8
2017-03-24T01:37:33.387Z,5.8
2017-03-24T01:38:35.745Z,5.8
2017-03-24T01:39:39.157Z,5.8
2017-03-24T01:40:41.252Z,5.8
2017-03-24T01:41:43.597Z,5.8
2017-03-24T01:43:48.856Z,5.8
2017-03-24T01:44:51.130Z,5.8
2017-03-24T01:45:54.149Z,5.8
2017-03-24T01:46:56.492Z,5.8
2017-03-24T01:47:59.342Z,5.8
2017-03-24T01:49:01.698Z,5.8
2017-03-24T01:50:04.550Z,5.8
2017-03-24T01:51:07.154Z,5.8
2017-03-24T01:52:09.366Z,5.8
2017-03-24T01:53:12.218Z,5.8
2017-03-24T01:54:14.586Z,5.8
2017-03-24T01:55:17.436Z,5.8
2017-03-24T01:56:20.302Z,5.8
2017-03-24T01:57:22.646Z,5.9
2017-03-24T01:58:25.003Z,5.9
2017-03-24T01:59:27.854Z,5.9
2017-03-24T02:00:30.202Z,5.9
2017-03-24T02:01:33.306Z,5.9
2017-03-24T02:02:35.655Z,5.9
2017-03-24T02:03:38.008Z,5.9
2017-03-24T02:04:40.866Z,5.9
2017-03-24T02:05:43.078Z,5.9
2017-03-24T02:06:46.176Z,6
2017-03-24T02:07:48.529Z,6
2017-03-24T02:08:50.876Z,6
2017-03-24T02:09:53.765Z,6
2017-03-24T02:10:56.112Z,6
2017-03-24T02:11:59.216Z,6
2017-03-24T02:13:01.569Z,6
2017-03-24T02:14:03.919Z,6
2017-03-24T02:15:06.771Z,6
2017-03-24T02:16:09.120Z,6
2017-03-24T02:17:12.218Z,6
2017-03-24T02:18:14.563Z,6
2017-03-24T02:19:16.915Z,6
2017-03-24T02:20:19.767Z,6
2017-03-24T02:21:22.119Z,6
2017-03-24T02:22:24.770Z,6
2017-03-24T02:23:27.129Z,6
2017-03-24T02:24:29.982Z,6
2017-03-24T02:25:32.889Z,6
2017-03-24T02:26:35.665Z,6
2017-03-24T02:27:37.765Z,6
2017-03-24T02:28:40.116Z,6
2017-03-24T02:29:42.973Z,6
2017-03-24T02:30:45.317Z,6
2017-03-24T02:31:48.165Z,6
2017-03-24T02:32:50.768Z,5.9
2017-03-24T02:33:53.120Z,5.8
2017-03-24T02:34:56.530Z,5.8
2017-03-24T02:35:58.369Z,5.8
2017-03-24T02:37:00.447Z,5.8
2017-03-24T02:38:03.630Z,5.8
2017-03-24T02:39:05.983Z,5.8
2017-03-24T02:40:08.701Z,5.8
2017-03-24T02:41:11.419Z,5.8
2017-03-24T02:42:13.630Z,5.8
2017-03-24T02:43:16.523Z,5.8
2017-03-24T02:44:18.873Z,5.8
2017-03-24T02:45:21.723Z,5.7
2017-03-24T02:46:24.066Z,5.7
2017-03-24T02:47:26.921Z,5.7
2017-03-24T02:48:29.572Z,5.7
2017-03-24T02:49:31.916Z,5.7
2017-03-24T02:50:34.768Z,5.7
2017-03-24T02:51:37.112Z,5.7
2017-03-24T02:52:39.966Z,5.7
2017-03-24T02:53:42.570Z,5.7
2017-03-24T02:54:44.920Z,5.7
2017-03-24T02:55:47.769Z,5.7
2017-03-24T02:56:50.161Z,5.6
2017-03-24T02:57:52.515Z,5.6
2017-03-24T02:59:58.032Z,5.6
2017-03-24T03:01:00.380Z,5.5
2017-03-24T03:02:03.228Z,5.5
2017-03-24T03:03:05.945Z,5.5
2017-03-24T03:04:08.303Z,5.5
2017-03-24T03:05:10.904Z,5.4
2017-03-24T03:06:13.256Z,5.4
2017-03-24T03:07:16.109Z,5.4
2017-03-24T03:08:18.190Z,5.3
2017-03-24T03:09:21.051Z,5.3
2017-03-24T03:10:24.202Z,5.2
2017-03-24T03:11:26.549Z,5.2
2017-03-24T03:12:28.765Z,5.1
2017-03-24T03:13:31.616Z,5.1
2017-03-24T03:14:33.835Z,5
2017-03-24T03:15:36.800Z,5
2017-03-24T03:16:39.147Z,5
2017-03-24T03:17:41.999Z,5
2017-03-24T03:18:44.353Z,4.9
2017-03-24T03:19:47.206Z,4.8
2017-03-24T03:20:49.803Z,4.8
2017-03-24T03:21:52.152Z,4.8
2017-03-24T03:22:55.005Z,4.8
2017-03-24T03:23:57.232Z,4.8
2017-03-24T03:25:00.090Z,4.7
2017-03-24T03:26:02.695Z,4.7
2017-03-24T03:27:05.048Z,4.7
2017-03-24T03:28:07.773Z,4.7
2017-03-24T03:29:10.120Z,4.6
2017-03-24T03:30:12.968Z,4.6
2017-03-24T03:31:15.565Z,4.6
2017-03-24T03:32:17.907Z,4.6
2017-03-24T03:33:20.755Z,4.6
2017-03-24T03:34:23.109Z,4.5
2017-03-24T03:35:25.453Z,4.5
2017-03-24T03:36:28.549Z,4.5
2017-03-24T03:37:30.755Z,4.5
2017-03-24T03:38:33.599Z,4.5
2017-03-24T03:39:35.668Z,4.5
2017-03-24T03:40:38.512Z,4.5
2017-03-24T03:41:41.611Z,4.5
2017-03-24T03:42:43.455Z,4.5
2017-03-24T03:43:46.301Z,4.4
2017-03-24T03:44:48.504Z,4.4
2017-03-24T03:45:51.348Z,4.4
2017-03-24T03:47:56.907Z,4.3
2017-03-24T03:48:59.254Z,4.3
2017-03-24T03:50:01.642Z,4.3
2017-03-24T03:51:04.493Z,4.3
2017-03-24T03:52:06.834Z,4.3
2017-03-24T03:53:09.477Z,4.2
2017-03-24T03:54:11.819Z,4.3
2017-03-24T03:55:14.668Z,4.2
2017-03-24T03:56:17.002Z,4.2
2017-03-24T03:57:19.711Z,4.1
2017-03-24T03:58:22.172Z,4.1
2017-03-24T03:59:25.019Z,4.1
2017-03-24T04:00:27.361Z,4.1
2017-03-24T04:01:29.700Z,4.1
2017-03-24T04:02:32.541Z,4.1
2017-03-24T04:03:35.136Z,4.1
2017-03-24T04:04:37.486Z,4.1
2017-03-24T04:05:40.194Z,4.1
2017-03-24T04:06:42.400Z,4.1
2017-03-24T04:07:45.248Z,4.1
2017-03-24T04:08:48.405Z,4
2017-03-24T04:09:50.614Z,4
2017-03-24T04:10:52.953Z,4
2017-03-24T04:11:55.805Z,4
2017-03-24T04:12:58.147Z,4
2017-03-24T04:14:00.740Z,4
2017-03-24T04:15:03.088Z,4
2017-03-24T04:16:06.564Z,4
2017-03-24T04:17:08.270Z,4
2017-03-24T04:18:11.687Z,4
2017-03-24T04:19:13.828Z,4
2017-03-24T04:20:16.166Z,4
2017-03-24T04:21:18.509Z,4
2017-03-24T04:22:21.355Z,4
2017-03-24T04:23:23.699Z,4
2017-03-24T04:24:27.362Z,3.9
2017-03-24T04:25:28.694Z,3.9
2017-03-24T04:26:31.535Z,3.9
2017-03-24T04:27:33.877Z,3.8
2017-03-24T04:28:36.724Z,3.8
2017-03-24T04:29:39.313Z,3.8
2017-03-24T04:30:41.650Z,3.8
2017-03-24T04:31:44.492Z,3.8
2017-03-24T04:32:46.849Z,3.8
2017-03-24T04:33:49.194Z,3.8
2017-03-24T04:34:52.291Z,3.8
2017-03-24T04:35:54.639Z,3.8
2017-03-24T04:36:56.977Z,3.8
2017-03-24T04:37:59.823Z,3.7
2017-03-24T04:39:02.170Z,3.7
2017-03-24T04:40:04.759Z,3.7
2017-03-24T04:41:07.096Z,3.7
2017-03-24T04:42:09.811Z,3.7
2017-03-24T04:43:12.161Z,3.7
2017-03-24T04:44:15.001Z,3.7
2017-03-24T04:45:17.459Z,3.7
2017-03-24T04:46:20.171Z,3.7
2017-03-24T04:47:22.512Z,3.6
2017-03-24T04:48:25.362Z,3.6
2017-03-24T04:49:27.747Z,3.6
2017-03-24T04:51:33.256Z,3.6
2017-03-24T04:52:35.596Z,3.6
2017-03-24T04:53:37.808Z,3.6
2017-03-24T04:54:40.655Z,3.6
2017-03-24T04:56:45.516Z,3.6
2017-03-24T04:57:48.364Z,3.6
2017-03-24T04:58:50.713Z,3.6
2017-03-24T04:59:53.059Z,3.6
2017-03-24T05:00:55.904Z,3.6
2017-03-24T05:01:59.118Z,3.6
2017-03-24T05:03:00.966Z,3.6
2017-03-24T05:04:03.314Z,3.6
2017-03-24T05:05:06.716Z,3.6
2017-03-24T05:06:08.416Z,3.6
2017-03-24T05:07:11.238Z,3.6
2017-03-24T05:08:13.576Z,3.6
2017-03-24T05:09:16.422Z,3.6
2017-03-24T05:10:18.490Z,3.6
2017-03-24T05:11:21.071Z,3.6
2017-03-24T05:12:24.160Z,3.5
2017-03-24T05:13:26.367Z,3.5
2017-03-24T05:14:29.078Z,3.6
2017-03-24T05:15:31.419Z,3.6
2017-03-24T05:16:34.259Z,3.5
2017-03-24T05:18:39.759Z,3.5
2017-03-24T05:19:41.596Z,3.5
2017-03-24T05:20:44.439Z,3.5
2017-03-24T05:21:46.786Z,3.6
2017-03-24T05:22:49.494Z,3.5
2017-03-24T05:23:52.089Z,3.5
2017-03-24T05:24:54.436Z,3.5
2017-03-24T05:25:57.279Z,3.5
2017-03-24T05:26:59.689Z,3.5
2017-03-24T05:28:02.032Z,3.5
2017-03-24T05:29:05.132Z,3.5
2017-03-24T05:30:07.340Z,3.4
2017-03-24T05:31:10.182Z,3.5
2017-03-24T05:32:12.529Z,3.4
2017-03-24T05:33:14.879Z,3.4
2017-03-24T05:34:17.850Z,3.5
2017-03-24T05:35:20.186Z,3.5
2017-03-24T05:36:22.391Z,3.5
2017-03-24T05:37:25.101Z,3.5
2017-03-24T05:40:33.018Z,3.5
2017-03-24T05:41:35.357Z,3.5
2017-03-24T05:42:38.262Z,3.5
2017-03-24T05:43:40.610Z,3.5
2017-03-24T05:44:42.956Z,3.5
2017-03-24T05:45:46.049Z,3.5
2017-03-24T05:46:48.392Z,3.5
2017-03-24T05:47:50.731Z,3.4
2017-03-24T05:48:53.621Z,3.5
2017-03-24T05:49:55.967Z,3.5
2017-03-24T05:50:58.558Z,3.5
2017-03-24T05:52:00.945Z,3.6
2017-03-24T05:53:03.285Z,3.7
2017-03-24T05:54:05.999Z,3.8
2017-03-24T05:55:08.844Z,3.8
2017-03-24T05:56:11.441Z,4
2017-03-24T05:57:13.649Z,3.8
2017-03-24T05:58:16.494Z,3.9
2017-03-24T05:59:19.398Z,4
2017-03-24T06:00:21.237Z,4.1
2017-03-24T06:03:29.146Z,4.5
2017-03-24T06:04:31.496Z,4.7
2017-03-24T06:05:34.404Z,4.6
2017-03-24T06:06:36.608Z,4.6
2017-03-24T06:07:39.452Z,4.6
2017-03-24T06:08:42.052Z,4.8
2017-03-24T06:09:44.397Z,5
2017-03-24T06:10:46.737Z,5
2017-03-24T06:11:49.507Z,4.8
2017-03-24T06:12:52.358Z,5
2017-03-24T06:13:54.952Z,5
2017-03-24T06:14:57.304Z,5.2
2017-03-24T06:15:59.645Z,5.2
2017-03-24T06:17:02.407Z,5.4
2017-03-24T06:18:04.754Z,5.6
2017-03-24T06:19:07.912Z,5.5
2017-03-24T06:20:10.260Z,5.8
2017-03-24T06:21:12.608Z,5.6
2017-03-24T06:22:15.462Z,5.5
2017-03-24T06:23:17.808Z,5.5
2017-03-24T06:24:20.402Z,5.7
2017-03-24T06:25:22.610Z,5.7
2017-03-24T06:26:25.461Z,5.8
2017-03-24T06:27:28.302Z,5.7
2017-03-24T06:28:30.643Z,5.5
2017-03-24T06:29:33.466Z,5.7
2017-03-24T06:30:35.801Z,5.8
2017-03-24T06:31:38.508Z,6
2017-03-24T06:32:40.850Z,6.3
2017-03-24T06:33:43.694Z,6.6
2017-03-24T06:34:46.289Z,6.5
2017-03-24T06:35:48.996Z,6.6
2017-03-24T06:36:51.333Z,6.8
2017-03-24T06:37:54.736Z,6.9
2017-03-24T06:38:56.450Z,7
2017-03-24T06:39:59.553Z,7
2017-03-24T06:41:01.904Z,7.1
2017-03-24T06:42:04.243Z,7.1
2017-03-24T06:43:07.081Z,7.1
2017-03-24T06:44:09.428Z,7.1
2017-03-24T06:45:12.565Z,7
2017-03-24T06:46:14.768Z,7.2
2017-03-24T06:47:17.106Z,7.1
2017-03-24T06:48:19.883Z,7.3
2017-03-24T06:49:22.732Z,7.4
2017-03-24T06:50:25.188Z,7.4
2017-03-24T06:51:27.398Z,7.3
2017-03-24T06:52:30.249Z,7.5
2017-03-24T06:53:33.093Z,7.6
2017-03-24T06:54:35.439Z,7.7
2017-03-24T06:55:38.136Z,7.8
2017-03-24T06:56:40.478Z,7.8
2017-03-24T06:57:43.322Z,8
2017-03-24T06:58:45.400Z,8.2
2017-03-24T06:59:49.310Z,8
2017-03-24T07:00:51.396Z,8.1
2017-03-24T07:01:53.740Z,8.1
2017-03-24T07:02:56.628Z,8.1
2017-03-24T07:03:58.970Z,8.1
2017-03-24T07:05:01.819Z,8.2
2017-03-24T07:06:04.416Z,8.4
2017-03-24T07:07:06.757Z,8.5
2017-03-24T07:08:09.609Z,8.5
2017-03-24T07:09:11.955Z,8.4
2017-03-24T07:10:14.801Z,8.5
2017-03-24T07:11:17.398Z,8.4
2017-03-24T07:12:19.738Z,8.4
2017-03-24T07:13:23.004Z,8.3
2017-03-24T07:14:25.348Z,8.5
2017-03-24T07:15:27.758Z,8.4
2017-03-24T07:16:30.720Z,8.3
2017-03-24T07:17:32.925Z,8.4
2017-03-24T07:18:35.642Z,8.6
2017-03-24T07:19:38.491Z,8.4
2017-03-24T07:21:43.992Z,8.6
2017-03-24T07:22:46.380Z,8.6
2017-03-24T07:23:48.723Z,8.6
2017-03-24T07:24:51.507Z,8.4
2017-03-24T07:25:53.850Z,8.5
2017-03-24T07:26:56.949Z,8.3
2017-03-24T07:27:59.291Z,8.5
2017-03-24T07:29:02.138Z,8.6
2017-03-24T07:30:05.041Z,8.7
2017-03-24T07:32:10.033Z,8.7
2017-03-24T07:33:12.235Z,8.6
2017-03-24T07:34:14.944Z,8.3
2017-03-24T07:35:17.782Z,8.1
2017-03-24T07:36:20.118Z,8.5
2017-03-24T07:37:23.211Z,8.6
2017-03-24T07:38:25.554Z,8.7
2017-03-24T07:39:28.307Z,8.6
2017-03-24T07:40:31.023Z,8.8
2017-03-24T07:41:33.368Z,8.7
2017-03-24T07:42:36.464Z,8.6
2017-03-24T07:43:38.809Z,8.6
2017-03-24T07:44:41.151Z,8.8
2017-03-24T07:45:43.865Z,8.8
2017-03-24T07:46:47.275Z,8.7
2017-03-24T07:47:49.399Z,8.8
2017-03-24T07:48:51.768Z,8.9
2017-03-24T07:49:54.623Z,8.7
2017-03-24T07:50:56.968Z,8.8
2017-03-24T07:51:59.809Z,8.8
2017-03-24T07:53:02.958Z,8.6
2017-03-24T07:54:05.308Z,8.8
2017-03-24T07:55:07.656Z,8.9
2017-03-24T07:56:10.505Z,8.9
2017-03-24T07:57:12.844Z,8.7
2017-03-24T07:58:15.935Z,8.7
2017-03-24T07:59:18.145Z,8.9
2017-03-24T08:00:20.855Z,9
2017-03-24T08:01:23.561Z,9
2017-03-24T08:02:26.313Z,9.1
2017-03-24T08:03:28.908Z,9.2
2017-03-24T08:04:30.973Z,9.3
2017-03-24T08:05:34.314Z,9.1
2017-03-24T08:06:36.525Z,9.3
2017-03-24T08:07:39.231Z,9.6
2017-03-24T08:08:42.188Z,9.6
2017-03-24T08:09:44.897Z,9.8
2017-03-24T08:10:47.234Z,10
2017-03-24T08:11:49.938Z,9.8
2017-03-24T08:12:52.643Z,9.5
2017-03-24T08:13:55.650Z,9.3
2017-03-24T08:14:57.853Z,9.6
2017-03-24T08:16:00.564Z,9.6
2017-03-24T08:17:03.406Z,9.7
2017-03-24T08:18:05.740Z,9.5
2017-03-24T08:19:09.402Z,9.5
2017-03-24T08:20:11.236Z,9.5
2017-03-24T08:21:13.575Z,9.5
2017-03-24T08:22:16.322Z,9.5
2017-03-24T08:23:19.029Z,9.3
2017-03-24T08:24:21.988Z,9.3
2017-03-24T08:25:24.328Z,9.3
2017-03-24T08:26:27.212Z,9.4
2017-03-24T08:27:29.549Z,9.4
2017-03-24T08:28:32.390Z,9
2017-03-24T08:29:35.031Z,8.8
2017-03-24T08:30:37.870Z,9.1
2017-03-24T08:31:40.207Z,9
2017-03-24T08:32:43.048Z,8.8
2017-03-24T08:33:45.387Z,8.8
2017-03-24T08:34:48.356Z,8.9
2017-03-24T08:35:50.556Z,8.6
2017-03-24T08:36:53.400Z,8.9
2017-03-24T08:37:56.238Z,9.1
2017-03-24T08:38:58.579Z,9.3
2017-03-24T08:40:01.679Z,9.3
2017-03-24T08:41:04.018Z,9.5
2017-03-24T08:42:06.727Z,9.3
2017-03-24T08:43:09.297Z,9.1
2017-03-24T08:44:12.566Z,9.3
2017-03-24T08:45:15.156Z,9.5
2017-03-24T08:46:17.498Z,9.5
2017-03-24T08:47:19.834Z,9.5
2017-03-24T08:48:23.099Z,9.5
2017-03-24T08:49:25.447Z,9.3
2017-03-24T08:50:28.045Z,9.3
2017-03-24T08:51:30.886Z,9.1
2017-03-24T08:52:33.230Z,9.2
2017-03-24T08:53:36.069Z,9.3
2017-03-24T08:54:38.413Z,9
2017-03-24T08:55:41.234Z,9.2
2017-03-24T08:56:44.139Z,9.3
2017-03-24T08:57:46.208Z,9.3
2017-03-24T08:58:49.049Z,9.4
2017-03-24T08:59:51.892Z,9.3
2017-03-24T09:00:54.855Z,9
2017-03-24T09:01:57.055Z,9
2017-03-24T09:02:59.762Z,9
2017-03-24T09:04:02.465Z,9
2017-03-24T09:05:05.430Z,9.1
2017-03-24T09:06:07.900Z,9
2017-03-24T09:07:10.247Z,8.9
2017-03-24T09:09:15.499Z,8.8
2017-03-24T09:10:18.338Z,8.9
2017-03-24T09:11:21.429Z,9
2017-03-24T09:12:23.634Z,9
2017-03-24T09:13:26.343Z,9
2017-03-24T09:14:28.921Z,9
2017-03-24T09:15:31.765Z,9
2017-03-24T09:16:34.357Z,8.8
2017-03-24T09:17:36.693Z,8.7
2017-03-24T09:18:39.401Z,8.7
2017-03-24T09:19:42.109Z,8.6
2017-03-24T09:20:44.812Z,8.5
2017-03-24T09:21:47.769Z,8.5
2017-03-24T09:22:49.969Z,8.5
2017-03-24T09:23:52.674Z,8.5
2017-03-24T09:24:55.244Z,8.5
2017-03-24T09:25:58.649Z,8.5
2017-03-24T09:27:00.734Z,8.5
2017-03-24T09:28:03.606Z,8.4
2017-03-24T09:29:05.955Z,8.4
2017-03-24T09:30:08.794Z,8.4
2017-03-24T09:31:11.129Z,8.2
2017-03-24T09:32:14.220Z,8.2
2017-03-24T09:33:16.425Z,8.2
2017-03-24T09:34:19.133Z,8.2
2017-03-24T09:36:24.247Z,8.2
2017-03-24T09:37:27.339Z,8.2
2017-03-24T09:38:29.681Z,8.3
2017-03-24T09:39:32.388Z,8.3
2017-03-24T09:40:35.240Z,8.3
2017-03-24T09:41:37.445Z,8.3
2017-03-24T09:42:40.592Z,8.3
2017-03-24T09:43:42.795Z,8.2
2017-03-24T09:44:45.637Z,8.1
2017-03-24T09:45:47.837Z,8.1
2017-03-24T09:46:51.053Z,8.1
2017-03-24T09:47:53.506Z,8.1
2017-03-24T09:48:56.345Z,8.1
2017-03-24T09:49:58.684Z,8.1
2017-03-24T09:51:01.527Z,8.1
2017-03-24T09:52:03.729Z,8.1
2017-03-24T09:53:06.822Z,8.1
2017-03-24T09:54:09.397Z,8.1
2017-03-24T09:55:11.601Z,8.1
2017-03-24T09:56:14.314Z,8.1
2017-03-24T09:58:20.227Z,8.2
2017-03-24T09:59:22.434Z,8.3
2017-03-24T10:00:25.138Z,8.2
2017-03-24T10:01:27.850Z,8.2
2017-03-24T10:02:30.556Z,8.2
2017-03-24T10:03:33.111Z,8.2
2017-03-24T10:04:35.442Z,8.1
2017-03-24T10:05:38.153Z,8.1
2017-03-24T10:06:40.995Z,8.1
2017-03-24T10:07:43.332Z,8.1
2017-03-24T10:08:46.422Z,8.2
2017-03-24T10:09:48.756Z,8.3
2017-03-24T10:10:51.594Z,8.3
2017-03-24T10:11:54.316Z,8.3
2017-03-24T10:12:56.665Z,8.3
2017-03-24T10:13:59.673Z,8.2
2017-03-24T10:15:02.008Z,8.3
2017-03-24T10:16:04.918Z,8.2
2017-03-24T10:17:07.029Z,8.1
2017-03-24T10:18:09.870Z,8.1
2017-03-24T10:19:12.964Z,8.1
2017-03-24T10:20:15.300Z,8.1
2017-03-24T10:21:18.010Z,8.1
2017-03-24T10:22:20.351Z,8.2
2017-03-24T10:23:23.062Z,8.1
2017-03-24T10:24:26.080Z,8.2
2017-03-24T10:25:28.418Z,8.2
2017-03-24T10:26:30.793Z,8.1
2017-03-24T10:27:33.632Z,8.1
2017-03-24T10:28:35.970Z,8.1
2017-03-24T10:29:38.928Z,8.1
2017-03-24T10:30:41.322Z,8.2
2017-03-24T10:31:44.097Z,8.3
2017-03-24T10:32:46.942Z,8.5
2017-03-24T10:33:49.283Z,8.8
2017-03-24T10:34:52.241Z,8.8
2017-03-24T10:35:54.578Z,8.8
2017-03-24T10:36:57.423Z,8.9
2017-03-24T10:37:59.763Z,9.2
2017-03-24T10:39:02.471Z,9.1
2017-03-24T10:40:05.439Z,9
2017-03-24T10:41:07.640Z,9
2017-03-24T10:42:10.482Z,9
2017-03-24T10:43:13.326Z,9.2
2017-03-24T10:44:15.710Z,9.2
2017-03-24T10:45:18.805Z,9.1
2017-03-24T10:46:21.702Z,9
2017-03-24T10:47:23.538Z,9
2017-03-24T10:48:26.377Z,8.9
2017-03-24T10:49:29.080Z,8.8
2017-03-24T10:50:32.080Z,8.9
2017-03-24T10:51:34.421Z,8.8
2017-03-24T10:52:36.623Z,8.8
2017-03-24T10:53:39.463Z,8.9
2017-03-24T10:54:42.169Z,9
2017-03-24T10:55:45.264Z,9
2017-03-24T10:56:47.613Z,9
2017-03-24T10:57:49.949Z,9.1
2017-03-24T10:58:52.791Z,9.1
2017-03-24T10:59:55.124Z,9.1
2017-03-24T11:00:58.131Z,9
2017-03-24T11:02:01.032Z,8.8
2017-03-24T11:03:03.374Z,8.8
2017-03-24T11:04:05.709Z,8.8
2017-03-24T11:05:08.437Z,8.6
2017-03-24T11:06:11.542Z,8.6
2017-03-24T11:07:13.746Z,8.6
2017-03-24T11:08:16.317Z,8.5
2017-03-24T11:09:19.025Z,8.5
2017-03-24T11:10:21.873Z,8.5
2017-03-24T11:11:24.464Z,8.6
2017-03-24T11:12:26.809Z,8.6
2017-03-24T11:13:29.650Z,8.6
2017-03-24T11:15:34.762Z,8.6
2017-03-24T11:16:37.856Z,8.6
2017-03-24T11:17:40.194Z,8.6
2017-03-24T11:18:43.036Z,8.6
2017-03-24T11:20:48.290Z,8.8
2017-03-24T11:21:50.885Z,8.8
2017-03-24T11:22:53.220Z,8.8
2017-03-24T11:23:56.063Z,8.8
2017-03-24T11:24:58.771Z,8.8
2017-03-24T11:26:01.516Z,8.9
2017-03-24T11:27:03.972Z,8.9
2017-03-24T11:28:06.677Z,8.8
2017-03-24T11:29:09.522Z,8.9
2017-03-24T11:30:11.861Z,8.9
2017-03-24T11:31:14.705Z,8.8
2017-03-24T11:32:17.348Z,8.8
2017-03-24T11:33:19.687Z,8.7
2017-03-24T11:34:22.394Z,8.8
2017-03-24T11:35:25.099Z,8.8
2017-03-24T11:36:27.810Z,9
2017-03-24T11:37:30.903Z,9
2017-03-24T11:38:33.273Z,8.9
2017-03-24T11:39:35.870Z,8.9
2017-03-24T11:40:38.074Z,8.8
2017-03-24T11:41:40.809Z,8.8
2017-03-24T11:42:43.773Z,8.8
2017-03-24T11:43:46.486Z,8.8
2017-03-24T11:44:48.689Z,8.8
2017-03-24T11:45:51.531Z,8.8
2017-03-24T11:46:54.373Z,8.8
2017-03-24T11:47:56.963Z,8.9
2017-03-24T11:48:59.298Z,9
2017-03-24T11:50:02.005Z,9
2017-03-24T11:51:04.845Z,9.1
2017-03-24T11:52:07.688Z,9.1
2017-03-24T11:53:10.275Z,9.1
2017-03-24T11:54:12.475Z,9.1
2017-03-24T11:55:15.181Z,9.1
2017-03-24T11:56:17.887Z,9.2
2017-03-24T11:57:20.737Z,9.3
2017-03-24T11:58:23.827Z,9.1
2017-03-24T11:59:26.167Z,9.1
2017-03-24T12:00:28.507Z,9.1
2017-03-24T12:01:31.350Z,9.1
2017-03-24T12:02:33.702Z,9.1
2017-03-24T12:03:36.845Z,9.2
2017-03-24T12:04:39.045Z,9.1
2017-03-24T12:05:41.751Z,9.1
2017-03-24T12:07:46.997Z,9.3
2017-03-24T12:08:50.088Z,9.5
2017-03-24T12:09:52.468Z,9.5
2017-03-24T12:10:55.869Z,9.6
2017-03-24T12:11:57.578Z,9.6
2017-03-24T12:13:00.423Z,9.6
2017-03-24T12:14:03.529Z,9.6
2017-03-24T12:15:05.871Z,9.5
2017-03-24T12:16:08.078Z,9.4
2017-03-24T12:17:10.918Z,9.4
2017-03-24T12:18:13.489Z,9.3
2017-03-24T12:19:16.451Z,9.3
2017-03-24T12:20:18.653Z,9.3
2017-03-24T12:21:21.408Z,9.3
2017-03-24T12:22:24.260Z,9.5
2017-03-24T12:23:26.969Z,9.5
2017-03-24T12:24:29.621Z,9.5
2017-03-24T12:25:31.963Z,9.5
2017-03-24T12:26:34.673Z,9.4
2017-03-24T12:27:37.518Z,9.6
2017-03-24T12:29:43.017Z,9.8
2017-03-24T12:30:45.350Z,9.8
2017-03-24T12:31:48.480Z,9.8
2017-03-24T12:32:50.821Z,9.8
2017-03-24T12:33:53.666Z,9.6
2017-03-24T12:34:56.253Z,9.5
2017-03-24T12:35:58.595Z,9.5
2017-03-24T12:37:01.437Z,9.6
2017-03-24T12:38:04.300Z,9.5
2017-03-24T12:39:06.518Z,9.5
2017-03-24T12:40:09.475Z,9.3
2017-03-24T12:41:12.184Z,9.5
2017-03-24T12:42:14.521Z,9.4
2017-03-24T12:43:17.359Z,9.5
2017-03-24T12:44:20.199Z,9.4
2017-03-24T12:46:25.469Z,9.5
2017-03-24T12:47:27.804Z,9.5
2017-03-24T12:48:30.513Z,9.5
2017-03-24T12:49:33.366Z,9.4
2017-03-24T12:50:35.702Z,9.3
2017-03-24T12:51:38.665Z,9.3
2017-03-24T12:52:41.012Z,9.2
2017-03-24T12:53:43.719Z,9.3
2017-03-24T12:54:46.428Z,9.3
2017-03-24T12:55:49.302Z,9.3
2017-03-24T12:56:52.123Z,9.5
2017-03-24T12:57:55.018Z,9.5
2017-03-24T12:58:57.355Z,9.5
2017-03-24T12:59:59.688Z,9.5
2017-03-24T13:01:02.396Z,9.5
2017-03-24T13:02:05.490Z,9.5
2017-03-24T13:03:07.832Z,9.5
2017-03-24T13:04:10.033Z,9.5
2017-03-24T13:05:12.735Z,9.5
2017-03-24T13:06:15.575Z,9.5
2017-03-24T13:07:18.727Z,9.5
2017-03-24T13:08:21.067Z,9.6
2017-03-24T13:09:23.908Z,9.6
2017-03-24T13:10:26.277Z,9.7
2017-03-24T13:11:29.117Z,9.6
2017-03-24T13:12:31.468Z,9.6
2017-03-24T13:13:34.056Z,9.6
2017-03-24T13:14:36.764Z,9.6
2017-03-24T13:15:39.606Z,9.6
2017-03-24T13:16:42.862Z,9.6
2017-03-24T13:17:44.954Z,9.5
2017-03-24T13:18:47.795Z,9.5
2017-03-24T13:19:49.998Z,9.6
2017-03-24T13:20:52.840Z,9.6
2017-03-24T13:21:55.687Z,9.6
2017-03-24T13:22:58.698Z,9.7
2017-03-24T13:24:00.907Z,9.7
2017-03-24T13:25:03.614Z,9.6
2017-03-24T13:26:06.325Z,9.6
2017-03-24T13:27:08.669Z,9.6
2017-03-24T13:28:12.370Z,9.6
2017-03-24T13:29:14.074Z,9.5
2017-03-24T13:30:16.919Z,9.6
2017-03-24T13:31:19.263Z,9.5
2017-03-24T13:32:22.108Z,9.5
2017-03-24T13:34:27.615Z,9.3
2017-03-24T13:35:29.824Z,9.3
2017-03-24T13:36:32.668Z,9.5
2017-03-24T13:37:35.510Z,9.4
2017-03-24T13:38:37.852Z,9.4
2017-03-24T13:39:40.948Z,9.5
2017-03-24T13:40:43.287Z,9.5
2017-03-24T13:42:48.538Z,9.4
2017-03-24T13:43:51.940Z,9.4
2017-03-24T13:44:54.262Z,9.4
2017-03-24T13:45:56.470Z,9.3
2017-03-24T13:46:59.352Z,9.3
2017-03-24T13:48:02.199Z,9.2
2017-03-24T13:49:04.469Z,9.3
2017-03-24T13:50:07.429Z,9.2
2017-03-24T13:51:09.637Z,9.1
2017-03-24T13:52:12.477Z,9.1
2017-03-24T13:53:15.050Z,9.2
2017-03-24T13:54:17.894Z,9.3
2017-03-24T13:55:21.418Z,9.3
2017-03-24T13:56:23.119Z,9.5
2017-03-24T13:57:25.759Z,9.5
2017-03-24T13:58:28.600Z,9.6
2017-03-24T13:59:30.942Z,9.6
2017-03-24T14:01:36.943Z,9.7
2017-03-24T14:02:39.281Z,9.7
2017-03-24T14:03:41.619Z,9.8
2017-03-24T14:04:44.462Z,9.8
2017-03-24T14:05:47.098Z,9.7
2017-03-24T14:06:49.922Z,9.6
2017-03-24T14:07:52.634Z,9.6
2017-03-24T14:08:54.973Z,9.6
2017-03-24T14:11:00.086Z,9.6
2017-03-24T14:12:03.184Z,9.6
2017-03-24T14:13:05.390Z,9.6
2017-03-24T14:14:08.096Z,9.6
2017-03-24T14:15:10.807Z,9.6
2017-03-24T14:16:13.648Z,9.6
2017-03-24T14:17:16.615Z,9.6
2017-03-24T14:18:18.957Z,9.6
2017-03-24T14:19:22.221Z,9.6
2017-03-24T14:20:24.426Z,9.8
2017-03-24T14:21:26.630Z,10
2017-03-24T14:22:29.776Z,9.9
2017-03-24T14:23:32.044Z,10.1
2017-03-24T14:24:34.891Z,10
2017-03-24T14:25:37.734Z,10.2
2017-03-24T14:26:40.074Z,10.3
2017-03-24T14:27:43.033Z,10.3
2017-03-24T14:28:45.744Z,10.2
2017-03-24T14:29:48.085Z,10.1
2017-03-24T14:30:50.661Z,10
2017-03-24T14:31:53.504Z,9.9
2017-03-24T14:32:56.655Z,9.9
2017-03-24T14:33:58.865Z,10.1
2017-03-24T14:35:01.437Z,10
2017-03-24T14:36:04.705Z,10
2017-03-24T14:37:06.777Z,9.9
2017-03-24T14:39:12.328Z,10.1
2017-03-24T14:41:17.578Z,10.2
2017-03-24T14:42:20.286Z,10.2
2017-03-24T14:43:23.694Z,10.3
2017-03-24T14:44:25.647Z,10.1
2017-03-24T14:45:28.557Z,10
2017-03-24T14:47:33.670Z,10
2017-03-24T14:48:35.878Z,10
2017-03-24T14:49:38.751Z,10.1
2017-03-24T14:50:41.598Z,10
2017-03-24T14:51:44.439Z,9.9
2017-03-24T14:52:46.775Z,10.1
2017-03-24T14:53:49.619Z,10.2
2017-03-24T14:54:52.258Z,10
2017-03-24T14:55:54.639Z,9.9
2017-03-24T14:56:57.484Z,9.8
2017-03-24T14:58:00.326Z,9.7
2017-03-24T14:59:02.662Z,10